sensor_id;sensor_type;location;lat;lon;timestamp;P1;durP1;ratioP1;P2;durP2;ratioP2
84189;SDS011;74321;53.406;8.146;2024-03-02T08:08:58;16.05;;;8.20;;
84189;SDS011;74321;53.406;8.146;2024-03-02T08:14:01;16.80;;;8.65;;
84189;SDS011;74321;53.406;8.146;2024-03-02T08:19:03;18.88;;;9.27;;
84189;SDS011;74321;53.406;8.146;2024-03-02T08:24:05;16.67;;;8.60;;
84189;SDS011;74321;53.406;8.146;2024-03-02T08:29:08;18.95;;;10.10;;
84189;SDS011;74321;53.406;8.146;2024-03-02T08:34:10;15.88;;;8.57;;
84189;SDS011;74321;53.406;8.146;2024-03-02T08:39:12;17.23;;;9.73;;
84189;SDS011;74321;53.406;8.146;2024-03-02T08:44:17;13.93;;;8.18;;
84189;SDS011;74321;53.406;8.146;2024-03-02T08:49:19;13.73;;;7.80;;
84189;SDS011;74321;53.406;8.146;2024-03-02T08:54:21;12.40;;;7.75;;
84189;SDS011;74321;53.406;8.146;2024-03-02T08:59:24;12.38;;;6.72;;
84189;SDS011;74321;53.406;8.146;2024-03-02T09:04:27;11.32;;;6.88;;
84189;SDS011;74321;53.406;8.146;2024-03-02T09:09:35;10.93;;;6.53;;
84189;SDS011;74321;53.406;8.146;2024-03-02T09:14:37;13.90;;;8.20;;
84189;SDS011;74321;53.406;8.146;2024-03-02T09:19:40;12.82;;;6.68;;
84189;SDS011;74321;53.406;8.146;2024-03-02T09:24:42;11.25;;;6.70;;
84189;SDS011;74321;53.406;8.146;2024-03-02T09:29:44;12.35;;;7.45;;
84189;SDS011;74321;53.406;8.146;2024-03-02T09:34:46;9.30;;;5.97;;
84189;SDS011;74321;53.406;8.146;2024-03-02T09:39:49;12.00;;;6.28;;
84189;SDS011;74321;53.406;8.146;2024-03-02T09:44:52;9.80;;;6.93;;
84189;SDS011;74321;53.406;8.146;2024-03-02T09:49:54;9.95;;;5.60;;
84189;SDS011;74321;53.406;8.146;2024-03-02T09:54:57;9.20;;;4.57;;
84189;SDS011;74321;53.406;8.146;2024-03-02T09:59:59;7.95;;;4.75;;
84189;SDS011;74321;53.406;8.146;2024-03-02T10:05:05;10.40;;;4.88;;
84189;SDS011;74321;53.406;8.146;2024-03-02T10:10:13;8.07;;;4.70;;
84189;SDS011;74321;53.406;8.146;2024-03-02T10:15:23;7.18;;;4.10;;
84189;SDS011;74321;53.406;8.146;2024-03-02T10:20:26;5.45;;;3.88;;
84189;SDS011;74321;53.406;8.146;2024-03-02T10:25:34;7.18;;;4.18;;
84189;SDS011;74321;53.406;8.146;2024-03-02T10:30:51;7.03;;;4.47;;
84189;SDS011;74321;53.406;8.146;2024-03-02T10:35:55;6.70;;;4.63;;
84189;SDS011;74321;53.406;8.146;2024-03-02T10:40:57;5.85;;;3.92;;
84189;SDS011;74321;53.406;8.146;2024-03-02T10:46:01;5.93;;;4.20;;
84189;SDS011;74321;53.406;8.146;2024-03-02T10:51:04;6.50;;;4.45;;
84189;SDS011;74321;53.406;8.146;2024-03-02T10:56:07;7.15;;;4.55;;
84189;SDS011;74321;53.406;8.146;2024-03-02T11:01:11;6.38;;;4.25;;
84189;SDS011;74321;53.406;8.146;2024-03-02T11:06:14;6.32;;;4.03;;
84189;SDS011;74321;53.406;8.146;2024-03-02T11:11:19;7.18;;;4.20;;
84189;SDS011;74321;53.406;8.146;2024-03-02T11:16:33;3.58;;;2.60;;
84189;SDS011;74321;53.406;8.146;2024-03-02T11:21:37;5.97;;;3.05;;
84189;SDS011;74321;53.406;8.146;2024-03-02T11:26:40;4.63;;;2.40;;
84189;SDS011;74321;53.406;8.146;2024-03-02T11:31:57;4.05;;;2.60;;
84189;SDS011;74321;53.406;8.146;2024-03-02T11:37:02;4.85;;;2.75;;
84189;SDS011;74321;53.406;8.146;2024-03-02T11:47:08;4.05;;;2.45;;
84189;SDS011;74321;53.406;8.146;2024-03-02T11:52:13;4.65;;;3.15;;
84189;SDS011;74321;53.406;8.146;2024-03-02T11:57:17;3.38;;;2.50;;
84189;SDS011;74321;53.406;8.146;2024-03-02T12:02:29;3.22;;;2.28;;
84189;SDS011;74321;53.406;8.146;2024-03-02T12:07:31;4.00;;;2.65;;
84189;SDS011;74321;53.406;8.146;2024-03-02T12:12:34;3.60;;;2.45;;
84189;SDS011;74321;53.406;8.146;2024-03-02T12:17:36;3.70;;;3.10;;
84189;SDS011;74321;53.406;8.146;2024-03-02T12:22:39;3.78;;;2.67;;
84189;SDS011;74321;53.406;8.146;2024-03-02T12:27:42;5.32;;;3.05;;
84189;SDS011;74321;53.406;8.146;2024-03-02T12:32:45;4.28;;;2.53;;
84189;SDS011;74321;53.406;8.146;2024-03-02T12:37:48;4.45;;;2.65;;
84189;SDS011;74321;53.406;8.146;2024-03-02T12:42:51;3.83;;;2.85;;
84189;SDS011;74321;53.406;8.146;2024-03-02T12:47:53;4.95;;;3.22;;
84189;SDS011;74321;53.406;8.146;2024-03-02T12:52:56;4.65;;;2.97;;
84189;SDS011;74321;53.406;8.146;2024-03-02T12:57:58;6.60;;;3.15;;
84189;SDS011;74321;53.406;8.146;2024-03-02T13:03:01;6.93;;;3.13;;
84189;SDS011;74321;53.406;8.146;2024-03-02T13:08:06;7.32;;;3.95;;
84189;SDS011;74321;53.406;8.146;2024-03-02T13:13:08;4.28;;;2.85;;
84189;SDS011;74321;53.406;8.146;2024-03-02T13:18:11;5.00;;;3.22;;
84189;SDS011;74321;53.406;8.146;2024-03-02T13:23:13;8.35;;;4.60;;
84189;SDS011;74321;53.406;8.146;2024-03-02T13:28:15;4.78;;;3.45;;
84189;SDS011;74321;53.406;8.146;2024-03-02T13:33:18;8.10;;;3.88;;
84189;SDS011;74321;53.406;8.146;2024-03-02T13:38:26;5.20;;;3.30;;
84189;SDS011;74321;53.406;8.146;2024-03-02T13:43:29;5.63;;;4.03;;
84189;SDS011;74321;53.406;8.146;2024-03-02T13:48:33;5.43;;;3.67;;
84189;SDS011;74321;53.406;8.146;2024-03-02T13:53:35;6.88;;;3.75;;
84189;SDS011;74321;53.406;8.146;2024-03-02T13:58:37;5.53;;;4.25;;
84189;SDS011;74321;53.406;8.146;2024-03-02T14:03:40;7.68;;;3.95;;
84189;SDS011;74321;53.406;8.146;2024-03-02T14:08:42;6.55;;;3.60;;
84189;SDS011;74321;53.406;8.146;2024-03-02T14:13:46;6.38;;;3.50;;
84189;SDS011;74321;53.406;8.146;2024-03-02T14:18:55;8.38;;;4.55;;
84189;SDS011;74321;53.406;8.146;2024-03-02T14:23:58;5.53;;;3.80;;
84189;SDS011;74321;53.406;8.146;2024-03-02T14:29:00;5.35;;;3.17;;
84189;SDS011;74321;53.406;8.146;2024-03-02T14:34:03;5.85;;;3.63;;
84189;SDS011;74321;53.406;8.146;2024-03-02T14:39:05;6.43;;;3.38;;
84189;SDS011;74321;53.406;8.146;2024-03-02T14:44:11;5.00;;;2.92;;
84189;SDS011;74321;53.406;8.146;2024-03-02T14:49:14;6.85;;;3.90;;
84189;SDS011;74321;53.406;8.146;2024-03-02T14:54:16;5.07;;;3.35;;
84189;SDS011;74321;53.406;8.146;2024-03-02T14:59:18;10.82;;;4.95;;
84189;SDS011;74321;53.406;8.146;2024-03-02T15:04:20;8.10;;;4.82;;
84189;SDS011;74321;53.406;8.146;2024-03-02T15:09:23;11.63;;;4.28;;
84189;SDS011;74321;53.406;8.146;2024-03-02T15:14:25;9.95;;;5.90;;
84189;SDS011;74321;53.406;8.146;2024-03-02T15:19:27;7.50;;;3.83;;
84189;SDS011;74321;53.406;8.146;2024-03-02T15:24:29;7.85;;;5.05;;
84189;SDS011;74321;53.406;8.146;2024-03-02T15:29:31;9.10;;;4.75;;
84189;SDS011;74321;53.406;8.146;2024-03-02T15:34:33;9.30;;;5.68;;
84189;SDS011;74321;53.406;8.146;2024-03-02T15:39:35;8.88;;;4.68;;
84189;SDS011;74321;53.406;8.146;2024-03-02T15:44:37;10.00;;;5.68;;
84189;SDS011;74321;53.406;8.146;2024-03-02T15:49:43;9.25;;;5.82;;
84189;SDS011;74321;53.406;8.146;2024-03-02T15:54:46;9.80;;;5.40;;
84189;SDS011;74321;53.406;8.146;2024-03-02T15:59:48;10.82;;;6.88;;
84189;SDS011;74321;53.406;8.146;2024-03-02T16:04:51;11.05;;;6.32;;
84189;SDS011;74321;53.406;8.146;2024-03-02T16:09:53;10.35;;;5.65;;
84189;SDS011;74321;53.406;8.146;2024-03-02T16:14:55;10.88;;;5.47;;
84189;SDS011;74321;53.406;8.146;2024-03-02T16:19:57;10.15;;;5.40;;
84189;SDS011;74321;53.406;8.146;2024-03-02T16:25:00;11.48;;;6.07;;
84189;SDS011;74321;53.406;8.146;2024-03-02T16:30:02;15.15;;;6.32;;
84189;SDS011;74321;53.406;8.146;2024-03-02T16:35:05;11.02;;;6.53;;
84189;SDS011;74321;53.406;8.146;2024-03-02T16:40:08;10.43;;;5.72;;
84189;SDS011;74321;53.406;8.146;2024-03-02T16:45:10;13.00;;;6.10;;
84189;SDS011;74321;53.406;8.146;2024-03-02T16:50:13;11.88;;;6.50;;
84189;SDS011;74321;53.406;8.146;2024-03-02T16:55:15;10.85;;;6.00;;
84189;SDS011;74321;53.406;8.146;2024-03-02T17:00:17;13.50;;;6.45;;
84189;SDS011;74321;53.406;8.146;2024-03-02T17:05:19;12.05;;;5.95;;
84189;SDS011;74321;53.406;8.146;2024-03-02T17:10:23;14.88;;;6.13;;
84189;SDS011;74321;53.406;8.146;2024-03-02T17:15:25;13.07;;;5.90;;
84189;SDS011;74321;53.406;8.146;2024-03-02T17:20:28;10.82;;;5.68;;
84189;SDS011;74321;53.406;8.146;2024-03-02T17:25:30;11.00;;;5.15;;
84189;SDS011;74321;53.406;8.146;2024-03-02T17:30:32;14.23;;;6.55;;
84189;SDS011;74321;53.406;8.146;2024-03-02T17:35:34;13.85;;;7.82;;
84189;SDS011;74321;53.406;8.146;2024-03-02T17:40:36;19.13;;;10.57;;
84189;SDS011;74321;53.406;8.146;2024-03-02T17:45:39;13.07;;;7.18;;
84189;SDS011;74321;53.406;8.146;2024-03-02T17:50:41;14.15;;;8.48;;
84189;SDS011;74321;53.406;8.146;2024-03-02T17:55:43;22.95;;;11.23;;
84189;SDS011;74321;53.406;8.146;2024-03-02T18:00:45;22.40;;;11.93;;
84189;SDS011;74321;53.406;8.146;2024-03-02T18:05:48;14.40;;;7.07;;
84189;SDS011;74321;53.406;8.146;2024-03-02T18:10:50;14.48;;;7.05;;
84189;SDS011;74321;53.406;8.146;2024-03-02T18:15:52;17.40;;;9.20;;
84189;SDS011;74321;53.406;8.146;2024-03-02T18:20:54;19.92;;;10.57;;
84189;SDS011;74321;53.406;8.146;2024-03-02T18:25:56;15.68;;;8.48;;
84189;SDS011;74321;53.406;8.146;2024-03-02T18:30:58;19.25;;;8.85;;
84189;SDS011;74321;53.406;8.146;2024-03-02T18:36:01;15.95;;;9.13;;
84189;SDS011;74321;53.406;8.146;2024-03-02T18:41:05;16.10;;;8.57;;
84189;SDS011;74321;53.406;8.146;2024-03-02T18:46:07;12.45;;;6.80;;
84189;SDS011;74321;53.406;8.146;2024-03-02T18:51:11;13.40;;;7.15;;
84189;SDS011;74321;53.406;8.146;2024-03-02T18:56:13;13.88;;;6.57;;
84189;SDS011;74321;53.406;8.146;2024-03-02T19:01:15;12.80;;;5.90;;
84189;SDS011;74321;53.406;8.146;2024-03-02T19:06:18;10.90;;;6.55;;
84189;SDS011;74321;53.406;8.146;2024-03-02T19:11:20;12.93;;;6.80;;
84189;SDS011;74321;53.406;8.146;2024-03-02T19:16:22;12.82;;;7.40;;
84189;SDS011;74321;53.406;8.146;2024-03-02T19:21:24;13.10;;;6.70;;
84189;SDS011;74321;53.406;8.146;2024-03-02T19:26:26;13.40;;;6.63;;
84189;SDS011;74321;53.406;8.146;2024-03-02T19:31:28;14.73;;;7.22;;
84189;SDS011;74321;53.406;8.146;2024-03-02T19:36:30;14.27;;;6.90;;
84189;SDS011;74321;53.406;8.146;2024-03-02T19:41:32;14.43;;;6.88;;
84189;SDS011;74321;53.406;8.146;2024-03-02T19:46:34;11.60;;;6.00;;
84189;SDS011;74321;53.406;8.146;2024-03-02T19:51:36;9.02;;;5.22;;
84189;SDS011;74321;53.406;8.146;2024-03-02T19:56:38;11.85;;;6.10;;
84189;SDS011;74321;53.406;8.146;2024-03-02T20:01:40;8.30;;;4.13;;
84189;SDS011;74321;53.406;8.146;2024-03-02T20:06:42;10.88;;;5.15;;
84189;SDS011;74321;53.406;8.146;2024-03-02T20:11:44;12.07;;;5.68;;
84189;SDS011;74321;53.406;8.146;2024-03-02T20:16:47;9.27;;;4.72;;
84189;SDS011;74321;53.406;8.146;2024-03-02T20:21:49;9.85;;;5.28;;
84189;SDS011;74321;53.406;8.146;2024-03-02T20:26:51;7.35;;;4.32;;
84189;SDS011;74321;53.406;8.146;2024-03-02T20:31:53;7.38;;;4.55;;
84189;SDS011;74321;53.406;8.146;2024-03-02T20:36:57;11.60;;;5.65;;
84189;SDS011;74321;53.406;8.146;2024-03-02T20:42:02;11.13;;;4.97;;
84189;SDS011;74321;53.406;8.146;2024-03-02T20:47:04;9.02;;;5.10;;
84189;SDS011;74321;53.406;8.146;2024-03-02T20:52:06;12.40;;;5.60;;
84189;SDS011;74321;53.406;8.146;2024-03-02T20:57:08;11.07;;;5.97;;
84189;SDS011;74321;53.406;8.146;2024-03-02T21:02:10;8.68;;;4.60;;
84189;SDS011;74321;53.406;8.146;2024-03-02T21:07:13;10.00;;;5.28;;
84189;SDS011;74321;53.406;8.146;2024-03-02T21:12:15;11.00;;;5.35;;
84189;SDS011;74321;53.406;8.146;2024-03-02T21:17:17;9.60;;;4.32;;
84189;SDS011;74321;53.406;8.146;2024-03-02T21:22:19;10.02;;;5.32;;
84189;SDS011;74321;53.406;8.146;2024-03-02T21:27:23;9.93;;;5.72;;
84189;SDS011;74321;53.406;8.146;2024-03-02T21:32:25;11.00;;;4.50;;
84189;SDS011;74321;53.406;8.146;2024-03-02T21:37:27;9.13;;;4.60;;
84189;SDS011;74321;53.406;8.146;2024-03-02T21:42:30;8.60;;;5.05;;
84189;SDS011;74321;53.406;8.146;2024-03-02T21:47:32;11.70;;;5.45;;
84189;SDS011;74321;53.406;8.146;2024-03-02T21:52:34;12.05;;;5.38;;
84189;SDS011;74321;53.406;8.146;2024-03-02T21:57:36;14.82;;;6.45;;
84189;SDS011;74321;53.406;8.146;2024-03-02T22:02:39;14.45;;;6.68;;
84189;SDS011;74321;53.406;8.146;2024-03-02T22:07:41;12.57;;;6.03;;
84189;SDS011;74321;53.406;8.146;2024-03-02T22:12:43;16.20;;;6.90;;
84189;SDS011;74321;53.406;8.146;2024-03-02T22:17:45;12.85;;;5.50;;
84189;SDS011;74321;53.406;8.146;2024-03-02T22:22:47;21.23;;;7.93;;
84189;SDS011;74321;53.406;8.146;2024-03-02T22:27:49;14.65;;;6.47;;
84189;SDS011;74321;53.406;8.146;2024-03-02T22:32:57;13.65;;;6.15;;
84189;SDS011;74321;53.406;8.146;2024-03-02T22:38:00;18.95;;;7.70;;
84189;SDS011;74321;53.406;8.146;2024-03-02T22:43:02;16.48;;;7.38;;
84189;SDS011;74321;53.406;8.146;2024-03-02T22:48:04;13.98;;;7.25;;
84189;SDS011;74321;53.406;8.146;2024-03-02T22:53:06;16.35;;;7.35;;
84189;SDS011;74321;53.406;8.146;2024-03-02T22:58:08;17.98;;;8.82;;
84189;SDS011;74321;53.406;8.146;2024-03-02T23:03:10;17.05;;;8.30;;
84189;SDS011;74321;53.406;8.146;2024-03-02T23:08:12;20.88;;;9.30;;
84189;SDS011;74321;53.406;8.146;2024-03-02T23:13:15;18.05;;;8.63;;
84189;SDS011;74321;53.406;8.146;2024-03-02T23:18:17;19.92;;;8.75;;
84189;SDS011;74321;53.406;8.146;2024-03-02T23:23:19;20.58;;;10.20;;
84189;SDS011;74321;53.406;8.146;2024-03-02T23:28:21;23.13;;;10.80;;
84189;SDS011;74321;53.406;8.146;2024-03-02T23:33:23;19.90;;;9.73;;
84189;SDS011;74321;53.406;8.146;2024-03-02T23:38:25;22.38;;;10.05;;
84189;SDS011;74321;53.406;8.146;2024-03-02T23:43:27;24.33;;;10.40;;
84189;SDS011;74321;53.406;8.146;2024-03-02T23:48:30;20.08;;;9.05;;
84189;SDS011;74321;53.406;8.146;2024-03-02T23:53:32;23.25;;;10.45;;
84189;SDS011;74321;53.406;8.146;2024-03-02T23:58:34;24.75;;;11.55;;
